createdAt,value
2017-11-16T00:01:45.618Z,82.05
2017-11-16T00:04:11.997Z,64.35
2017-11-16T00:06:38.405Z,68.35
2017-11-16T00:09:04.775Z,44.40
2017-11-16T00:11:31.140Z,49.85
2017-11-16T00:13:57.508Z,67.07
2017-11-16T00:18:55.996Z,56.05
2017-11-16T00:21:22.344Z,69.32
2017-11-16T00:26:21.564Z,44.85
2017-11-16T00:28:47.961Z,47.35
2017-11-16T00:31:14.308Z,51.85
2017-11-16T00:33:40.687Z,51.97
2017-11-16T00:36:07.807Z,46.88
2017-11-16T00:38:34.208Z,51.53
2017-11-16T00:41:00.579Z,52.88
2017-11-16T00:43:27.954Z,48.58
2017-11-16T00:45:54.321Z,50.30
2017-11-16T00:48:20.715Z,44.65
2017-11-16T00:50:47.099Z,49.33
2017-11-16T00:53:15.297Z,50.08
2017-11-16T00:55:41.687Z,39.70
2017-11-16T00:58:08.461Z,45.25
2017-11-16T01:00:34.824Z,44.10
2017-11-16T01:03:01.194Z,49.50
2017-11-16T01:05:28.582Z,52.15
2017-11-16T01:07:54.949Z,53.00
2017-11-16T01:10:21.452Z,68.80
2017-11-16T01:12:47.826Z,57.90
2017-11-16T01:15:14.212Z,66.50
2017-11-16T01:17:40.606Z,57.28
2017-11-16T01:20:06.981Z,59.13
2017-11-16T01:22:33.341Z,66.93
2017-11-16T01:24:59.708Z,55.25
2017-11-16T01:27:26.816Z,60.22
2017-11-16T01:29:54.184Z,65.55
2017-11-16T01:32:20.539Z,59.60
2017-11-16T01:34:47.653Z,60.17
2017-11-16T01:37:14.020Z,64.68
2017-11-16T01:39:41.639Z,65.65
2017-11-16T01:42:08.024Z,63.42
2017-11-16T01:44:35.163Z,64.18
2017-11-16T01:47:02.387Z,53.28
2017-11-16T01:49:28.756Z,66.87
2017-11-16T01:51:55.862Z,51.65
2017-11-16T01:54:22.240Z,56.78
2017-11-16T01:56:49.367Z,62.40
2017-11-16T01:59:16.419Z,57.35
2017-11-16T02:01:42.816Z,60.67
2017-11-16T02:04:09.477Z,53.80
2017-11-16T02:06:35.864Z,47.22
2017-11-16T02:09:02.292Z,58.33
2017-11-16T02:11:28.684Z,56.28
2017-11-16T02:13:55.091Z,57.50
2017-11-16T02:16:21.461Z,44.85
2017-11-16T02:18:48.603Z,53.65
2017-11-16T02:21:15.004Z,59.67
2017-11-16T02:23:41.399Z,49.30
2017-11-16T02:26:08.069Z,41.35
2017-11-16T02:28:34.485Z,48.72
2017-11-16T02:31:01.640Z,42.75
2017-11-16T02:33:28.067Z,37.35
2017-11-16T02:35:54.446Z,36.17
2017-11-16T02:38:20.871Z,39.85
2017-11-16T02:40:47.296Z,38.92
2017-11-16T02:43:13.724Z,37.13
2017-11-16T02:45:40.160Z,35.92
2017-11-16T02:48:06.565Z,29.40
2017-11-16T02:50:32.969Z,38.22
2017-11-16T02:53:00.108Z,35.60
2017-11-16T02:55:26.542Z,31.65
2017-11-16T02:57:52.964Z,37.30
2017-11-16T03:00:19.364Z,40.45
2017-11-16T03:02:45.787Z,43.72
2017-11-16T03:05:12.223Z,34.53
2017-11-16T03:07:38.613Z,38.20
2017-11-16T03:10:06.022Z,40.12
2017-11-16T03:12:32.408Z,41.30
2017-11-16T03:14:58.795Z,40.58
2017-11-16T03:17:25.229Z,42.13
2017-11-16T03:19:51.624Z,44.38
2017-11-16T03:22:18.014Z,47.35
2017-11-16T03:24:44.416Z,38.60
2017-11-16T03:27:11.859Z,52.65
2017-11-16T03:29:39.292Z,38.22
2017-11-16T03:32:06.433Z,33.33
2017-11-16T03:34:32.829Z,36.75
2017-11-16T03:36:59.208Z,36.83
2017-11-16T03:39:27.420Z,34.30
2017-11-16T03:41:53.817Z,31.58
2017-11-16T03:44:20.967Z,32.03
2017-11-16T03:46:48.110Z,33.22
2017-11-16T03:49:14.484Z,34.88
2017-11-16T03:51:40.880Z,35.50
2017-11-16T03:54:07.996Z,33.83
2017-11-16T03:56:34.382Z,30.37
2017-11-16T03:59:01.523Z,33.13
2017-11-16T04:01:29.652Z,36.15
2017-11-16T04:03:56.160Z,42.05
2017-11-16T04:06:22.560Z,37.00
2017-11-16T04:08:48.949Z,41.25
2017-11-16T04:11:15.397Z,43.03
2017-11-16T04:13:41.799Z,39.47
2017-11-16T04:16:08.179Z,38.38
2017-11-16T04:18:34.563Z,41.42
2017-11-16T04:21:00.986Z,41.28
2017-11-16T04:23:27.387Z,37.92
2017-11-16T04:25:54.495Z,32.38
2017-11-16T04:28:20.864Z,32.55
2017-11-16T04:30:48.260Z,36.33
2017-11-16T04:33:14.659Z,36.42
2017-11-16T04:35:41.027Z,44.08
2017-11-16T04:38:07.475Z,42.40
2017-11-16T04:40:33.836Z,40.53
2017-11-16T04:43:00.207Z,33.53
2017-11-16T04:45:27.314Z,40.22
2017-11-16T04:47:53.743Z,30.55
2017-11-16T04:50:20.112Z,31.92
2017-11-16T04:52:46.513Z,32.45
2017-11-16T04:55:12.893Z,34.10
2017-11-16T04:57:40.017Z,37.78
2017-11-16T05:00:06.408Z,33.00
2017-11-16T05:02:32.775Z,30.60
2017-11-16T05:04:59.145Z,32.53
2017-11-16T05:07:25.512Z,33.05
2017-11-16T05:09:51.872Z,36.83
2017-11-16T05:12:19.037Z,37.40
2017-11-16T05:14:45.423Z,31.25
2017-11-16T05:17:11.800Z,41.47
2017-11-16T05:19:38.189Z,32.78
2017-11-16T05:22:05.339Z,44.38
2017-11-16T05:24:31.716Z,34.78
2017-11-16T05:26:58.087Z,39.42
2017-11-16T05:29:24.468Z,33.13
2017-11-16T05:31:50.871Z,40.90
2017-11-16T05:34:17.221Z,33.30
2017-11-16T05:36:43.640Z,39.72
2017-11-16T05:39:10.032Z,36.03
2017-11-16T05:41:37.144Z,30.50
2017-11-16T05:44:03.537Z,34.03
2017-11-16T05:46:29.928Z,32.40
2017-11-16T05:48:56.299Z,32.85
2017-11-16T05:51:22.657Z,33.13
2017-11-16T05:53:49.026Z,37.50
2017-11-16T05:56:15.416Z,37.60
2017-11-16T05:58:41.836Z,40.22
2017-11-16T06:01:08.253Z,38.20
2017-11-16T06:03:34.622Z,39.33
2017-11-16T06:06:01.413Z,35.53
2017-11-16T06:08:28.534Z,37.60
2017-11-16T06:10:54.900Z,38.20
2017-11-16T06:13:22.000Z,39.42
2017-11-16T06:15:48.363Z,47.10
2017-11-16T06:18:14.736Z,40.63
2017-11-16T06:20:41.105Z,45.20
2017-11-16T06:23:07.484Z,38.47
2017-11-16T06:25:33.855Z,32.90
2017-11-16T06:28:00.279Z,37.78
2017-11-16T06:30:27.369Z,42.67
2017-11-16T06:32:54.499Z,43.15
2017-11-16T06:35:20.914Z,43.00
2017-11-16T06:37:48.036Z,38.60
2017-11-16T06:40:14.464Z,44.38
2017-11-16T06:42:41.593Z,36.97
2017-11-16T06:45:07.973Z,24.33
2017-11-16T06:47:34.336Z,25.90
2017-11-16T06:50:00.703Z,29.15
2017-11-16T06:52:27.804Z,37.55
2017-11-16T06:54:54.185Z,33.80
2017-11-16T06:57:21.283Z,40.22
2017-11-16T06:59:48.444Z,37.00
2017-11-16T07:02:14.824Z,43.28
2017-11-16T07:04:41.911Z,38.30
2017-11-16T07:07:09.306Z,42.62
2017-11-16T07:09:35.699Z,33.45
2017-11-16T07:12:02.079Z,40.35
2017-11-16T07:14:28.455Z,49.58
2017-11-16T07:16:54.822Z,44.22
2017-11-16T07:19:21.192Z,34.92
2017-11-16T07:21:48.361Z,44.45
2017-11-16T07:24:14.716Z,38.75
2017-11-16T07:26:41.076Z,35.47
2017-11-16T07:29:07.444Z,37.67
2017-11-16T07:31:34.548Z,36.28
2017-11-16T07:34:00.929Z,42.40
2017-11-16T07:36:28.084Z,38.42
2017-11-16T07:38:54.473Z,31.20
2017-11-16T07:41:20.914Z,32.60
2017-11-16T07:43:47.292Z,36.58
2017-11-16T07:46:13.718Z,35.88
2017-11-16T07:48:40.132Z,41.42
2017-11-16T07:51:07.316Z,38.38
2017-11-16T07:53:33.728Z,32.97
2017-11-16T07:56:00.880Z,29.95
2017-11-16T07:58:27.977Z,35.90
2017-11-16T08:00:54.347Z,34.42
2017-11-16T08:03:21.457Z,30.45
2017-11-16T08:05:47.812Z,34.50
2017-11-16T08:08:14.206Z,33.85
2017-11-16T08:10:40.593Z,31.98
2017-11-16T08:13:07.701Z,25.20
2017-11-16T08:15:34.052Z,37.85
2017-11-16T08:18:00.417Z,32.78
2017-11-16T08:20:28.437Z,28.10
2017-11-16T08:22:54.808Z,23.87
2017-11-16T08:25:21.172Z,32.47
2017-11-16T08:27:47.549Z,35.33
2017-11-16T08:30:13.924Z,36.13
2017-11-16T08:32:41.026Z,31.50
2017-11-16T08:35:08.417Z,26.42
2017-11-16T08:37:35.551Z,32.97
2017-11-16T08:40:01.917Z,28.40
2017-11-16T08:42:28.324Z,32.08
2017-11-16T08:44:54.744Z,35.20
2017-11-16T08:47:21.520Z,30.10
2017-11-16T08:49:48.676Z,28.08
2017-11-16T08:52:15.107Z,33.15
2017-11-16T08:54:42.257Z,38.78
2017-11-16T08:57:09.407Z,26.33
2017-11-16T08:59:36.556Z,33.05
2017-11-16T09:02:04.018Z,28.02
2017-11-16T09:04:31.187Z,31.37
2017-11-16T09:06:57.596Z,34.50
2017-11-16T09:09:24.736Z,29.92
2017-11-16T09:11:51.901Z,30.80
2017-11-16T09:14:19.072Z,33.20
2017-11-16T09:16:45.597Z,32.22
2017-11-16T09:19:12.012Z,27.33
2017-11-16T09:21:40.204Z,27.17
2017-11-16T09:24:06.610Z,30.30
2017-11-16T09:26:33.005Z,32.05
2017-11-16T09:29:00.433Z,29.92
2017-11-16T09:31:26.829Z,34.25
2017-11-16T09:33:53.239Z,26.15
2017-11-16T09:36:19.641Z,24.83
2017-11-16T09:38:46.052Z,27.62
2017-11-16T09:41:13.204Z,25.70
2017-11-16T09:43:40.319Z,32.25
2017-11-16T09:46:06.691Z,37.50
2017-11-16T09:48:33.801Z,29.95
2017-11-16T09:51:00.197Z,33.17
2017-11-16T09:53:26.568Z,29.30
2017-11-16T09:55:53.060Z,26.27
2017-11-16T09:58:19.457Z,29.15
2017-11-16T10:00:46.625Z,33.40
2017-11-16T10:03:13.737Z,36.55
2017-11-16T10:05:40.100Z,37.97
2017-11-16T10:08:07.204Z,32.03
2017-11-16T10:10:33.622Z,32.97
2017-11-16T10:12:59.986Z,32.83
2017-11-16T10:15:26.363Z,27.62
2017-11-16T10:17:52.728Z,30.77
2017-11-16T10:20:19.131Z,33.75
2017-11-16T10:22:45.557Z,34.03
2017-11-16T10:25:12.668Z,32.58
2017-11-16T10:27:39.030Z,27.60
2017-11-16T10:30:06.167Z,27.15
2017-11-16T10:32:33.300Z,29.08
2017-11-16T10:34:59.681Z,32.67
2017-11-16T10:37:26.802Z,33.10
2017-11-16T10:39:53.932Z,31.17
2017-11-16T10:42:20.373Z,25.98
2017-11-16T10:44:46.799Z,31.62
2017-11-16T10:47:13.231Z,27.65
2017-11-16T10:49:39.638Z,27.73
2017-11-16T10:52:06.046Z,27.67
2017-11-16T10:54:32.425Z,33.13
2017-11-16T10:56:58.810Z,27.05
2017-11-16T10:59:25.195Z,25.73
2017-11-16T11:01:51.568Z,26.27
2017-11-16T11:04:18.659Z,35.35
2017-11-16T11:06:45.021Z,27.87
2017-11-16T11:09:11.386Z,31.42
2017-11-16T11:11:37.780Z,29.73
2017-11-16T11:14:04.211Z,27.02
2017-11-16T11:16:30.593Z,34.75
2017-11-16T11:18:56.972Z,29.98
2017-11-16T11:21:23.372Z,28.60
2017-11-16T11:23:49.756Z,28.95
2017-11-16T11:26:16.135Z,31.23
2017-11-16T11:28:42.500Z,34.30
2017-11-16T11:31:08.878Z,32.78
2017-11-16T11:33:36.000Z,33.00
2017-11-16T11:36:02.369Z,29.92
2017-11-16T11:38:28.744Z,30.98
2017-11-16T11:40:55.111Z,31.23
2017-11-16T11:43:22.212Z,29.87
2017-11-16T11:45:49.584Z,30.02
2017-11-16T11:48:15.963Z,31.45
2017-11-16T11:50:43.080Z,32.95
2017-11-16T11:53:09.459Z,32.70
2017-11-16T11:55:35.826Z,34.03
2017-11-16T11:58:02.213Z,31.73
2017-11-16T12:00:29.341Z,28.05
2017-11-16T12:02:55.705Z,30.50
2017-11-16T12:05:22.110Z,32.85
2017-11-16T12:07:49.221Z,34.42
2017-11-16T12:10:16.606Z,26.55
2017-11-16T12:12:42.980Z,33.50
2017-11-16T12:15:09.353Z,32.90
2017-11-16T12:17:35.732Z,33.38
2017-11-16T12:20:02.885Z,34.97
2017-11-16T12:22:30.013Z,32.00
2017-11-16T12:24:56.372Z,32.83
2017-11-16T12:27:22.769Z,42.42
2017-11-16T12:29:49.213Z,37.42
2017-11-16T12:32:15.616Z,37.13
2017-11-16T12:34:42.033Z,35.30
2017-11-16T12:37:08.436Z,30.75
2017-11-16T12:39:34.879Z,33.10
2017-11-16T12:42:01.273Z,30.05
2017-11-16T12:44:27.672Z,33.85
2017-11-16T12:46:54.103Z,35.97
2017-11-16T12:49:20.523Z,28.35
2017-11-16T12:51:46.932Z,34.20
2017-11-16T12:54:14.068Z,32.40
2017-11-16T12:56:42.045Z,28.87
2017-11-16T12:59:09.159Z,31.98
2017-11-16T13:01:35.544Z,40.30
2017-11-16T13:04:01.945Z,36.85
2017-11-16T13:06:28.354Z,37.10
2017-11-16T13:08:54.732Z,32.15
2017-11-16T13:11:21.856Z,36.70
2017-11-16T13:13:48.212Z,32.00
2017-11-16T13:16:15.320Z,35.53
2017-11-16T13:18:41.720Z,35.72
2017-11-16T13:21:08.092Z,36.70
2017-11-16T13:23:34.479Z,40.05
2017-11-16T13:26:00.868Z,35.70
2017-11-16T13:28:27.280Z,34.33
2017-11-16T13:30:53.708Z,36.30
2017-11-16T13:33:20.072Z,35.80
2017-11-16T13:35:46.436Z,34.65
2017-11-16T13:38:12.813Z,37.10
2017-11-16T13:40:39.189Z,33.33
2017-11-16T13:43:06.301Z,40.28
2017-11-16T13:45:32.665Z,31.77
2017-11-16T13:47:59.786Z,36.08
2017-11-16T13:50:26.144Z,30.83
2017-11-16T13:52:53.257Z,38.97
2017-11-16T13:55:19.624Z,32.42
2017-11-16T13:57:46.056Z,44.17
2017-11-16T14:00:12.420Z,46.08
2017-11-16T14:02:38.780Z,40.15
2017-11-16T14:05:05.144Z,42.70
2017-11-16T14:07:31.520Z,41.08
2017-11-16T14:09:57.881Z,42.00
2017-11-16T14:12:24.249Z,42.62
2017-11-16T14:14:51.644Z,39.33
2017-11-16T14:17:18.045Z,37.15
2017-11-16T14:19:45.157Z,45.30
2017-11-16T14:22:11.533Z,37.42
2017-11-16T14:24:38.649Z,40.28
2017-11-16T14:27:05.000Z,39.45
2017-11-16T14:29:31.365Z,43.15
2017-11-16T14:31:57.757Z,38.80
2017-11-16T14:34:24.157Z,38.75
2017-11-16T14:36:50.557Z,37.70
2017-11-16T14:39:16.924Z,38.42
2017-11-16T14:41:43.292Z,36.17
2017-11-16T14:44:09.676Z,40.10
2017-11-16T14:46:36.068Z,38.08
2017-11-16T14:49:03.205Z,42.20
2017-11-16T14:51:30.592Z,45.08
2017-11-16T14:53:57.698Z,48.40
2017-11-16T14:56:24.068Z,47.22
2017-11-16T14:58:51.192Z,41.78
2017-11-16T15:01:17.577Z,53.60
2017-11-16T15:03:43.968Z,44.03
2017-11-16T15:06:10.325Z,39.95
2017-11-16T15:08:36.706Z,43.15
2017-11-16T15:11:03.074Z,45.40
2017-11-16T15:13:31.230Z,34.08
2017-11-16T15:15:57.624Z,38.13
2017-11-16T15:18:23.999Z,41.05
2017-11-16T15:20:50.380Z,49.20
2017-11-16T15:23:16.752Z,47.53
2017-11-16T15:25:43.109Z,48.78
2017-11-16T15:28:10.233Z,42.78
2017-11-16T15:30:36.649Z,44.85
2017-11-16T15:33:03.058Z,43.25
2017-11-16T15:35:29.437Z,43.33
2017-11-16T15:37:55.823Z,41.35
2017-11-16T15:40:22.207Z,40.78
2017-11-16T15:42:48.572Z,38.60
2017-11-16T15:45:16.799Z,45.60
2017-11-16T15:47:43.181Z,40.55
2017-11-16T15:50:10.316Z,45.45
2017-11-16T15:52:37.438Z,38.22
2017-11-16T15:55:04.568Z,39.55
2017-11-16T15:57:30.924Z,32.47
2017-11-16T15:59:57.284Z,36.40
2017-11-16T16:02:24.400Z,38.55
2017-11-16T16:04:50.777Z,36.63
2017-11-16T16:07:17.906Z,36.35
2017-11-16T16:09:45.310Z,38.13
2017-11-16T16:12:11.697Z,40.42
2017-11-16T16:14:38.406Z,39.95
2017-11-16T16:17:04.828Z,33.90
2017-11-16T16:19:31.201Z,42.72
2017-11-16T16:21:58.592Z,39.83
2017-11-16T16:24:25.000Z,38.45
2017-11-16T16:26:51.369Z,42.28
2017-11-16T16:29:17.732Z,33.17
2017-11-16T16:31:44.088Z,41.75
2017-11-16T16:34:10.477Z,44.58
2017-11-16T16:36:36.847Z,45.47
2017-11-16T16:39:03.274Z,48.87
2017-11-16T16:41:29.631Z,41.60
2017-11-16T16:43:56.743Z,41.28
2017-11-16T16:46:23.861Z,42.83
2017-11-16T16:48:50.233Z,36.65
2017-11-16T16:51:16.611Z,48.35
2017-11-16T16:53:43.716Z,37.20
2017-11-16T16:56:10.082Z,42.75
2017-11-16T16:58:37.192Z,37.97
2017-11-16T17:01:03.576Z,41.40
2017-11-16T17:03:30.689Z,41.05
2017-11-16T17:05:57.061Z,42.78
2017-11-16T17:08:25.188Z,38.63
2017-11-16T17:10:51.549Z,40.12
2017-11-16T17:13:18.647Z,42.08
2017-11-16T17:15:45.031Z,32.65
2017-11-16T17:18:12.152Z,34.28
2017-11-16T17:20:38.545Z,33.13
2017-11-16T17:23:04.936Z,37.35
2017-11-16T17:25:31.296Z,36.92
2017-11-16T17:27:58.392Z,43.22
2017-11-16T17:30:24.745Z,41.40
2017-11-16T17:32:51.152Z,44.08
2017-11-16T17:35:17.528Z,43.65
2017-11-16T17:37:44.645Z,37.88
2017-11-16T17:40:11.029Z,34.13
2017-11-16T17:42:37.399Z,38.97
2017-11-16T17:45:03.817Z,40.45
2017-11-16T17:47:30.181Z,42.13
2017-11-16T17:49:58.537Z,48.05
2017-11-16T17:52:24.921Z,36.50
2017-11-16T17:54:52.029Z,45.67
2017-11-16T17:57:20.143Z,43.13
2017-11-16T17:59:47.267Z,37.65
2017-11-16T18:02:13.659Z,39.40
2017-11-16T18:04:40.026Z,44.50
2017-11-16T18:07:06.387Z,51.97
2017-11-16T18:09:32.746Z,43.08
2017-11-16T18:11:59.135Z,37.47
2017-11-16T18:14:25.577Z,41.83
2017-11-16T18:16:51.941Z,45.25
2017-11-16T18:19:19.053Z,45.50
2017-11-16T18:21:45.438Z,49.78
2017-11-16T18:24:11.817Z,46.63
2017-11-16T18:26:38.229Z,39.88
2017-11-16T18:29:04.600Z,38.50
2017-11-16T18:31:30.984Z,46.78
2017-11-16T18:33:57.352Z,42.62
2017-11-16T18:36:23.735Z,45.72
2017-11-16T18:38:50.100Z,40.67
2017-11-16T18:41:16.468Z,45.28
2017-11-16T18:43:43.584Z,49.50
2017-11-16T18:46:09.949Z,43.05
2017-11-16T18:48:38.043Z,49.75
2017-11-16T18:51:04.415Z,43.58
2017-11-16T18:53:30.775Z,43.90
2017-11-16T18:55:57.149Z,40.17
2017-11-16T18:58:24.450Z,44.63
2017-11-16T19:00:50.964Z,41.53
2017-11-16T19:03:17.348Z,42.35
2017-11-16T19:05:44.483Z,55.90
2017-11-16T19:08:10.967Z,48.03
2017-11-16T19:10:37.344Z,54.40
2017-11-16T19:13:03.974Z,65.20
2017-11-16T19:15:30.360Z,46.92
2017-11-16T19:17:58.453Z,38.67
2017-11-16T19:20:24.850Z,50.50
2017-11-16T19:22:52.260Z,55.25
2017-11-16T19:25:18.620Z,38.22
2017-11-16T19:27:45.183Z,54.10
2017-11-16T19:30:12.470Z,71.20
2017-11-16T19:32:38.938Z,71.97
2017-11-16T19:35:05.660Z,53.33
2017-11-16T19:37:32.181Z,50.33
2017-11-16T19:39:58.540Z,69.07
2017-11-16T19:42:24.904Z,69.78
2017-11-16T19:44:53.223Z,53.00
2017-11-16T19:47:19.731Z,52.00
2017-11-16T19:49:46.157Z,62.47
2017-11-16T19:52:12.743Z,55.53
2017-11-16T19:54:39.289Z,79.60
2017-11-16T19:57:05.664Z,56.03
2017-11-16T19:59:33.125Z,53.35
2017-11-16T20:01:59.497Z,49.58
2017-11-16T20:04:26.010Z,52.30
2017-11-16T20:06:52.566Z,49.88
2017-11-16T20:09:19.187Z,40.10
2017-11-16T20:11:46.534Z,56.28
2017-11-16T20:14:13.076Z,53.58
2017-11-16T20:16:39.447Z,58.10
2017-11-16T20:19:05.804Z,67.65
2017-11-16T20:21:32.913Z,104.80
2017-11-16T20:23:59.268Z,71.55
2017-11-16T20:26:25.636Z,45.67
2017-11-16T20:28:53.225Z,66.15
2017-11-16T20:31:19.619Z,83.07
2017-11-16T20:33:46.762Z,153.12
2017-11-16T20:36:14.007Z,93.95
2017-11-16T20:38:47.253Z,86.82
2017-11-16T20:41:30.673Z,89.87
2017-11-16T20:44:08.852Z,130.82
2017-11-16T20:46:42.125Z,73.05
2017-11-16T20:49:14.720Z,53.22
2017-11-16T20:51:56.023Z,63.70
2017-11-16T20:54:30.138Z,43.33
2017-11-16T20:56:57.279Z,44.90
2017-11-16T20:59:25.436Z,50.70
2017-11-16T21:01:51.804Z,51.47
2017-11-16T21:04:18.208Z,61.58
2017-11-16T21:06:44.571Z,58.00
2017-11-16T21:09:10.972Z,130.68
2017-11-16T21:11:37.378Z,57.25
2017-11-16T21:14:03.749Z,44.63
2017-11-16T21:16:30.884Z,53.85
2017-11-16T21:18:57.252Z,50.22
2017-11-16T21:21:23.630Z,49.05
2017-11-16T21:23:49.979Z,50.17
2017-11-16T21:26:16.339Z,56.42
2017-11-16T21:28:43.440Z,51.15
2017-11-16T21:31:09.806Z,47.13
2017-11-16T21:33:36.920Z,46.97
2017-11-16T21:36:03.305Z,69.70
2017-11-16T21:38:30.416Z,75.40
2017-11-16T21:40:56.776Z,58.03
2017-11-16T21:43:23.931Z,51.53
2017-11-16T21:45:51.062Z,51.92
2017-11-16T21:48:18.350Z,49.80
2017-11-16T21:50:44.748Z,44.83
2017-11-16T21:53:11.124Z,50.95
2017-11-16T21:55:37.491Z,48.25
2017-11-16T21:58:03.873Z,63.50
2017-11-16T22:00:30.984Z,54.25
2017-11-16T22:02:57.350Z,50.47
2017-11-16T22:05:24.493Z,60.08
2017-11-16T22:07:51.600Z,49.22
2017-11-16T22:10:17.995Z,51.80
2017-11-16T22:12:44.364Z,43.85
2017-11-16T22:15:10.736Z,45.65
2017-11-16T22:17:37.843Z,46.28
2017-11-16T22:20:04.204Z,44.25
2017-11-16T22:22:30.572Z,50.30
2017-11-16T22:24:56.941Z,55.20
2017-11-16T22:27:23.312Z,41.50
2017-11-16T22:29:51.421Z,42.72
2017-11-16T22:32:17.836Z,58.28
2017-11-16T22:34:44.951Z,44.10
2017-11-16T22:37:11.307Z,54.05
2017-11-16T22:39:38.472Z,48.92
2017-11-16T22:42:05.587Z,51.92
2017-11-16T22:44:31.952Z,58.30
2017-11-16T22:46:59.057Z,56.17
2017-11-16T22:49:25.420Z,55.30
2017-11-16T22:51:53.544Z,60.28
2017-11-16T22:54:19.907Z,51.97
2017-11-16T22:56:46.648Z,54.45
2017-11-16T22:59:13.019Z,52.28
2017-11-16T23:01:40.436Z,52.92
2017-11-16T23:04:06.825Z,55.83
2017-11-16T23:06:33.235Z,57.90
2017-11-16T23:09:00.348Z,53.58
2017-11-16T23:11:26.724Z,50.17
2017-11-16T23:13:53.084Z,56.35
2017-11-16T23:16:19.488Z,53.35
2017-11-16T23:18:45.952Z,55.53
2017-11-16T23:21:12.322Z,56.22
2017-11-16T23:23:38.700Z,46.37
2017-11-16T23:26:05.068Z,55.33
2017-11-16T23:28:31.607Z,56.10
2017-11-16T23:30:57.988Z,50.58
2017-11-16T23:33:25.128Z,50.35
2017-11-16T23:35:52.285Z,46.75
2017-11-16T23:38:19.396Z,50.90
2017-11-16T23:40:45.856Z,61.88
2017-11-16T23:43:12.236Z,58.25
2017-11-16T23:45:38.609Z,55.88
2017-11-16T23:48:04.976Z,54.95
2017-11-16T23:50:31.354Z,57.25
2017-11-16T23:52:57.715Z,47.85
2017-11-16T23:55:24.086Z,55.28
2017-11-16T23:57:51.459Z,54.15
